.
WxDataArchive / Data Records for 2014-01-17
2014-01-16 January 2014 2014-01-18

Data Records for Friday, 17 January 2014

Time	Temp	Chill	HIndex	Humid	Dewpt	 Wind 	HiWind	WindDir	Rain 	Barom 
-----	----	-----	------	-----	-----	------	------	-------	-----	----- 
00:00	27.8	27.8	27.8	75	20.9	1	4	248	0.00	29.688 
00:05	27.6	27.6	27.6	74	20.4	1	2	248	0.00	29.688 
00:10	27.3	27.3	27.3	73	19.8	1	4	248	0.00	29.688 
00:15	27.0	27.0	27.0	72	19.2	1	4	248	0.00	29.688 
00:20	26.9	26.9	26.9	71	18.8	2	5	248	0.00	29.688 
00:25	26.7	26.7	26.7	71	18.6	1	4	248	0.00	29.688 
00:30	26.6	26.6	26.6	71	18.5	1	4	248	0.00	29.690 
00:35	26.4	26.4	26.4	71	18.3	1	4	248	0.00	29.690 
00:40	26.3	26.3	26.3	70	17.9	2	4	248	0.00	29.690 
00:45	26.1	26.1	26.1	70	17.7	1	4	248	0.00	29.691 
00:50	26.0	26.0	26.0	70	17.6	1	4	248	0.00	29.691 
00:55	25.8	25.8	25.8	70	17.4	1	3	248	0.00	29.691 
01:00	25.7	25.7	25.7	71	17.6	1	4	248	0.00	29.701 
01:05	25.6	25.6	25.6	71	17.5	1	4	248	0.00	29.701 
01:10	25.3	25.3	25.3	71	17.2	0	3	248	0.00	29.701 
01:15	25.1	25.1	25.1	71	17.0	0	2	248	0.00	29.706 
01:20	25.0	25.0	25.0	72	17.3	0	2	248	0.00	29.706 
01:25	25.0	25.0	25.0	72	17.3	0	3	248	0.00	29.706 
01:30	25.0	25.0	25.0	72	17.3	0	2	248	0.00	29.707 
01:35	24.8	24.8	24.8	71	16.8	1	3	248	0.00	29.707 
01:40	24.8	24.8	24.8	71	16.8	1	4	248	0.00	29.707 
01:45	24.8	24.8	24.8	70	16.4	1	4	248	0.00	29.710 
01:50	24.8	24.8	24.8	70	16.4	1	3	248	0.00	29.710 
01:55	24.8	24.8	24.8	69	16.1	1	4	248	0.00	29.710 
02:00	24.8	24.8	24.8	69	16.1	1	3	248	0.00	29.717 
02:05	25.0	25.0	25.0	68	16.0	1	3	248	0.00	29.717 
02:10	25.0	25.0	25.0	68	16.0	0	3	248	0.00	29.717 
02:15	24.8	24.8	24.8	68	15.8	1	3	248	0.00	29.721 
02:20	24.8	24.8	24.8	68	15.8	1	3	248	0.00	29.721 
02:25	24.8	24.8	24.8	68	15.8	1	3	248	0.00	29.721 
02:30	24.7	24.7	24.7	68	15.7	0	3	248	0.00	29.724 
02:35	24.5	24.5	24.5	68	15.5	0	2	248	0.00	29.724 
02:40	24.4	24.4	24.4	68	15.4	0	2	248	0.00	29.724 
02:45	24.4	24.4	24.4	68	15.4	0	3	248	0.00	29.723 
02:50	24.4	24.4	24.4	67	15.0	0	3	248	0.00	29.723 
02:55	24.2	24.2	24.2	68	15.2	0	2	248	0.00	29.723 
03:00	24.1	24.1	24.1	68	15.1	0	1	248	0.00	29.726 
03:05	23.9	23.9	23.9	68	14.9	0	1	248	0.00	29.726 
03:10	23.6	23.6	23.6	68	14.6	0	0	---	0.00	29.726 
03:15	23.5	23.5	23.5	68	14.5	0	0	---	0.00	29.727 
03:20	23.2	23.2	23.2	69	14.6	0	0	---	0.00	29.727 
03:25	23.0	23.0	23.0	69	14.4	0	0	---	0.00	29.727 
03:30	22.5	22.5	22.5	69	13.9	0	0	---	0.00	29.733 
03:35	22.1	22.1	22.1	69	13.5	0	0	---	0.00	29.733 
03:40	21.6	21.6	21.6	69	13.0	0	0	---	0.00	29.733 
03:45	21.3	21.3	21.3	70	13.1	0	0	---	0.00	29.738 
03:50	21.0	21.0	21.0	70	12.8	0	0	---	0.00	29.738 
03:55	20.6	20.6	20.6	71	12.7	0	0	---	0.00	29.738 
04:00	20.3	20.3	20.3	72	12.7	0	0	---	0.00	29.739 
04:05	20.0	20.0	20.0	73	12.8	0	0	---	0.00	29.739 
04:10	19.9	19.9	19.9	73	12.7	0	0	---	0.00	29.739 
04:15	19.9	19.9	19.9	75	13.3	0	0	---	0.00	29.736 
04:20	20.0	20.0	20.0	76	13.7	0	0	---	0.00	29.736 
04:25	20.2	20.2	20.2	76	13.9	0	0	---	0.00	29.736 
04:30	20.6	20.6	20.6	76	14.3	0	0	---	0.00	29.736 
04:35	21.0	21.0	21.0	76	14.6	0	0	---	0.00	29.736 
04:40	21.3	21.3	21.3	76	14.9	0	0	---	0.00	29.736 
04:45	21.8	21.8	21.8	75	15.1	0	0	---	0.00	29.739 
04:50	22.1	22.1	22.1	74	15.1	0	0	---	0.00	29.739 
04:55	22.2	22.2	22.2	74	15.2	0	0	---	0.00	29.739 
05:00	22.2	22.2	22.2	73	14.9	0	1	248	0.00	29.738 
05:05	22.1	22.1	22.1	73	14.8	0	0	---	0.00	29.738 
05:10	22.1	22.1	22.1	73	14.8	0	0	---	0.00	29.738 
05:15	21.9	21.9	21.9	73	14.6	0	0	---	0.00	29.740 
05:20	22.1	22.1	22.1	73	14.8	0	0	---	0.00	29.740 
05:25	22.1	22.1	22.1	73	14.8	0	0	---	0.00	29.740 
05:30	22.1	22.1	22.1	73	14.8	0	0	---	0.00	29.741 
05:35	22.2	22.2	22.2	73	14.9	0	0	---	0.00	29.741 
05:40	22.2	22.2	22.2	73	14.9	0	0	---	0.00	29.741 
05:45	22.2	22.2	22.2	73	14.9	0	0	---	0.00	29.744 
05:50	22.4	22.4	22.4	74	15.4	0	0	---	0.00	29.744 
05:55	22.4	22.4	22.4	74	15.4	0	0	---	0.00	29.744 
06:00	22.5	22.5	22.5	74	15.5	0	0	---	0.00	29.742 
06:05	22.5	22.5	22.5	75	15.8	0	0	---	0.00	29.742 
06:10	22.5	22.5	22.5	75	15.8	0	0	---	0.00	29.742 
06:15	22.7	22.7	22.7	76	16.3	0	0	---	0.00	29.752 
06:20	22.9	22.9	22.9	76	16.5	0	0	---	0.00	29.752 
06:25	22.9	22.9	22.9	76	16.5	0	0	---	0.00	29.752 
06:30	23.0	23.0	23.0	76	16.6	0	0	---	0.00	29.752 
06:35	23.0	23.0	23.0	75	16.3	0	0	---	0.00	29.752 
06:40	23.2	23.2	23.2	74	16.2	0	0	---	0.00	29.752 
06:45	23.2	23.2	23.2	73	15.9	0	1	248	0.00	29.752 
06:50	23.2	23.2	23.2	73	15.9	0	0	---	0.00	29.752 
06:55	23.2	23.2	23.2	73	15.9	0	1	248	0.00	29.752 
07:00	23.3	23.3	23.3	74	16.3	0	0	---	0.00	29.744 
07:05	23.2	23.2	23.2	73	15.9	0	1	248	0.00	29.744 
07:10	23.2	23.2	23.2	73	15.9	0	1	248	0.00	29.744 
07:15	23.3	23.3	23.3	73	15.9	0	1	248	0.00	29.754 
07:20	23.3	23.3	23.3	73	15.9	0	0	---	0.00	29.754 
07:25	23.3	23.3	23.3	73	15.9	0	0	---	0.00	29.754 
07:30	23.5	23.5	23.5	73	16.1	0	1	248	0.00	29.771 
07:35	23.5	23.5	23.5	73	16.1	0	2	248	0.00	29.771 
07:40	23.6	23.6	23.6	72	15.9	0	1	248	0.00	29.771 
07:45	23.6	23.6	23.6	71	15.6	0	1	248	0.00	29.775 
07:50	23.5	23.5	23.5	71	15.5	0	1	248	0.00	29.775 
07:55	23.5	23.5	23.5	70	15.2	0	2	248	0.00	29.775 
08:00	23.5	23.5	23.5	69	14.9	0	2	248	0.00	29.776 
08:05	23.5	23.5	23.5	69	14.9	0	3	248	0.00	29.776 
08:10	23.5	23.5	23.5	69	14.9	0	1	248	0.00	29.776 
08:15	23.5	23.5	23.5	69	14.9	0	1	248	0.00	29.773 
08:20	23.5	23.5	23.5	69	14.9	0	2	248	0.00	29.773 
08:25	23.5	23.5	23.5	69	14.9	0	1	248	0.00	29.773 
08:30	23.5	23.5	23.5	69	14.9	0	2	248	0.00	29.782 
08:35	23.5	23.5	23.5	69	14.9	0	1	248	0.00	29.782 
08:40	23.6	23.6	23.6	70	15.3	0	2	248	0.00	29.782 
08:45	23.6	23.6	23.6	70	15.3	0	2	248	0.00	29.792 
08:50	23.6	23.6	23.6	70	15.3	0	1	248	0.00	29.792 
08:55	23.6	23.6	23.6	70	15.3	0	1	248	0.00	29.792 
09:00	23.6	23.6	23.6	70	15.3	0	2	248	0.00	29.794 
09:05	23.6	23.6	23.6	70	15.3	0	2	248	0.00	29.794 
09:10	23.6	23.6	23.6	70	15.3	0	3	248	0.00	29.794 
09:15	23.6	23.6	23.6	71	15.6	0	1	248	0.00	29.797 
09:20	23.6	23.6	23.6	71	15.6	0	3	248	0.00	29.797 
09:25	23.8	23.8	23.8	71	15.8	0	2	248	0.00	29.797 
09:30	23.8	23.8	23.8	71	15.8	0	1	248	0.00	29.807 
09:35	23.8	23.8	23.8	71	15.8	0	3	248	0.00	29.807 
09:40	23.8	23.8	23.8	71	15.8	1	2	248	0.00	29.807 
09:45	23.8	23.8	23.8	72	16.1	1	2	248	0.00	29.816 
09:50	23.8	23.8	23.8	72	16.1	0	2	248	0.00	29.816 
09:55	23.8	23.8	23.8	72	16.1	1	3	248	0.00	29.816 
10:00	23.8	23.8	23.8	71	15.8	1	3	248	0.00	29.819 
10:05	23.8	23.8	23.8	72	16.1	1	3	248	0.00	29.819 
10:10	23.8	23.8	23.8	72	16.1	1	3	248	0.00	29.819 
10:15	23.8	23.8	23.8	71	15.8	1	3	248	0.00	29.826 
10:20	23.8	23.8	23.8	72	16.1	1	3	248	0.00	29.826 
10:25	23.9	23.9	23.9	72	16.2	0	2	248	0.00	29.826 
10:30	23.9	23.9	23.9	72	16.2	1	3	248	0.00	29.829 
10:35	23.8	23.8	23.8	71	15.8	1	3	248	0.00	29.829 
10:40	23.5	23.5	23.5	72	15.8	2	4	248	0.00	29.829 
10:45	23.5	23.5	23.5	72	15.8	1	3	248	0.00	29.836 
10:50	23.3	23.3	23.3	72	15.6	0	2	248	0.00	29.836 
10:55	23.5	23.5	23.5	72	15.8	1	3	248	0.00	29.836 
11:00	23.6	23.6	23.6	72	15.9	1	4	248	0.00	29.831 
11:05	23.8	23.8	23.8	73	16.4	1	3	248	0.00	29.831 
11:10	23.8	23.8	23.8	74	16.7	0	2	248	0.00	29.831 
11:15	23.9	23.9	23.9	76	17.5	1	2	248	0.00	29.840 
11:20	23.8	23.8	23.8	76	17.4	0	3	248	0.00	29.840 
11:25	23.8	23.8	23.8	76	17.4	1	3	248	0.00	29.840 
11:30	23.8	23.8	23.8	74	16.7	2	3	248	0.00	29.844 
11:35	23.6	23.6	23.6	73	16.2	2	6	248	0.00	29.844 
11:40	23.5	23.5	23.5	73	16.1	2	4	248	0.00	29.844 
11:45	23.2	23.2	23.2	74	16.2	1	4	248	0.00	29.839 
11:50	22.9	22.9	22.9	75	16.2	2	4	270	0.00	29.839 
11:55	22.9	22.9	22.9	75	16.2	1	5	270	0.00	29.839 
12:00	22.9	22.9	22.9	76	16.5	1	3	248	0.00	29.833 
12:05	23.2	23.2	23.2	76	16.8	1	4	248	0.00	29.833 
12:10	23.0	23.0	23.0	75	16.3	2	4	248	0.00	29.833 
12:15	22.7	22.7	22.7	75	16.0	2	3	248	0.00	29.839 
12:20	22.9	22.9	22.9	75	16.2	2	5	248	0.00	29.839 
12:25	23.0	23.0	23.0	75	16.3	1	4	248	0.00	29.839 
12:30	22.9	22.9	22.9	74	15.9	2	4	248	0.00	29.833 
12:35	22.7	22.7	22.7	74	15.7	2	4	248	0.00	29.833 
12:40	22.9	22.9	22.9	74	15.9	1	3	248	0.00	29.833 
12:45	22.7	22.7	22.7	73	15.4	2	5	248	0.00	29.838 
12:50	22.5	22.5	22.5	74	15.5	1	4	248	0.00	29.838 
12:55	22.5	22.5	22.5	74	15.5	1	4	248	0.00	29.838 
13:00	22.2	22.2	22.2	73	14.9	3	5	248	0.00	29.846 
13:05	21.9	21.9	21.9	73	14.6	2	5	248	0.00	29.846 
13:10	21.9	21.9	21.9	73	14.6	2	5	248	0.00	29.846 
13:15	21.6	21.6	21.6	73	14.3	2	4	248	0.00	29.846 
13:20	21.3	21.3	21.3	73	14.0	2	5	270	0.00	29.846 
13:25	21.1	21.1	21.1	73	13.8	2	4	270	0.00	29.846 
13:30	21.1	21.1	21.1	73	13.8	2	5	248	0.00	29.840 
13:35	21.0	21.0	21.0	73	13.7	2	4	270	0.00	29.840 
13:40	21.0	21.0	21.0	73	13.7	2	7	248	0.00	29.840 
13:45	20.8	20.8	20.8	73	13.5	2	5	248	0.00	29.840 
13:50	21.0	21.0	21.0	73	13.7	2	4	248	0.00	29.840 
13:55	20.6	20.6	20.6	72	13.0	3	6	270	0.00	29.840 
14:00	20.6	20.6	20.6	73	13.3	2	6	248	0.00	29.851 
14:05	20.3	20.3	20.3	73	13.1	2	4	270	0.00	29.851 
14:10	20.2	20.2	20.2	72	12.6	2	5	270	0.00	29.851 
14:15	20.0	20.0	20.0	72	12.5	2	6	248	0.00	29.860 
14:20	20.0	20.0	20.0	73	12.8	2	6	248	0.00	29.860 
14:25	19.7	19.7	19.7	72	12.2	2	4	248	0.00	29.860 
14:30	19.5	19.5	19.5	72	12.0	2	5	270	0.00	29.866 
14:35	19.7	19.7	19.7	72	12.2	2	5	270	0.00	29.866 
14:40	19.5	19.5	19.5	71	11.7	2	5	270	0.00	29.866 
14:45	19.2	19.2	19.2	70	11.0	3	4	270	0.00	29.871 
14:50	19.2	19.2	19.2	70	11.0	3	9	248	0.00	29.871 
14:55	19.4	19.4	19.4	70	11.2	2	4	248	0.00	29.871 
15:00	19.1	19.1	19.1	69	10.6	3	7	248	0.00	29.876 
15:05	18.8	18.8	18.8	70	10.7	2	5	248	0.00	29.876 
15:10	18.6	18.6	18.6	70	10.5	2	7	248	0.00	29.876 
15:15	18.6	18.6	18.6	69	10.2	2	5	270	0.00	29.892 
15:20	18.4	18.4	18.4	69	10.0	1	4	248	0.00	29.892 
15:25	18.3	18.3	18.3	69	9.9	1	3	248	0.00	29.892 
15:30	18.4	18.4	18.4	69	10.0	2	4	270	0.00	29.903 
15:35	18.6	18.6	18.6	69	10.2	2	5	270	0.00	29.903 
15:40	18.4	18.4	18.4	68	9.6	2	5	248	0.00	29.903 
15:45	18.3	18.3	18.3	66	8.9	3	6	248	0.00	29.909 
15:50	17.8	17.8	17.8	65	8.1	3	10	248	0.00	29.909 
15:55	17.3	17.3	17.3	66	7.9	3	6	248	0.00	29.909 
16:00	17.0	17.0	17.0	67	8.0	2	6	248	0.00	29.919 
16:05	16.9	16.9	16.9	67	7.9	2	5	248	0.00	29.919 
16:10	16.7	16.7	16.7	67	7.7	2	4	248	0.00	29.919 
16:15	16.5	16.5	16.5	67	7.5	2	5	248	0.00	29.923 
16:20	16.4	16.4	16.4	67	7.4	2	5	248	0.00	29.923 
16:25	16.2	16.2	16.2	67	7.2	3	9	248	0.00	29.923 
16:30	15.9	15.9	15.9	67	6.9	3	6	270	0.00	29.933 
16:35	15.7	15.7	15.7	68	7.0	2	5	270	0.00	29.933 
16:40	15.7	15.7	15.7	68	7.0	3	6	248	0.00	29.933 
16:45	15.6	15.6	15.6	69	7.3	2	6	248	0.00	29.940 
16:50	15.4	15.4	15.4	67	6.4	3	6	248	0.00	29.940 
16:55	15.2	15.2	15.2	68	6.6	1	4	248	0.00	29.940 
17:00	15.1	15.1	15.1	68	6.5	1	5	248	0.00	29.951 
17:05	14.8	14.8	14.8	68	6.2	1	3	248	0.00	29.951 
17:10	14.6	14.6	14.6	69	6.3	1	4	248	0.00	29.951 
17:15	14.4	14.4	14.4	69	6.1	1	3	248	0.00	29.954 
17:20	14.4	14.4	14.4	69	6.1	1	4	248	0.00	29.954 
17:25	14.3	14.3	14.3	69	6.0	1	3	248	0.00	29.954 
17:30	14.1	14.1	14.1	69	5.8	1	4	248	0.00	29.968 
17:35	14.1	14.1	14.1	69	5.8	2	7	248	0.00	29.968 
17:40	14.1	14.1	14.1	69	5.8	1	3	248	0.00	29.968 
17:45	14.1	14.1	14.1	69	5.8	3	7	248	0.00	29.974 
17:50	14.1	14.1	14.1	69	5.8	1	4	248	0.00	29.974 
17:55	14.0	14.0	14.0	69	5.7	2	5	248	0.00	29.974 
18:00	13.8	13.8	13.8	69	5.5	2	6	270	0.00	29.980 
18:05	13.8	13.8	13.8	68	5.2	2	5	248	0.00	29.980 
18:10	13.8	13.8	13.8	67	4.9	3	6	248	0.00	29.980 
18:15	13.8	13.8	13.8	67	4.9	2	9	270	0.00	29.986 
18:20	13.6	13.6	13.6	67	4.7	2	5	248	0.00	29.986 
18:25	13.5	13.5	13.5	66	4.3	2	5	248	0.00	29.986 
18:30	13.5	13.5	13.5	66	4.3	2	6	248	0.00	29.988 
18:35	13.3	13.3	13.3	67	4.4	1	4	270	0.00	29.988 
18:40	13.3	13.3	13.3	67	4.4	2	5	248	0.00	29.988 
18:45	13.1	13.1	13.1	67	4.2	2	6	248	0.00	29.997 
18:50	13.1	13.1	13.1	67	4.2	2	6	248	0.00	29.997 
18:55	12.9	12.9	12.9	68	4.4	1	4	248	0.00	29.997 
19:00	12.9	12.9	12.9	69	4.7	2	6	248	0.00	30.003 
19:05	12.9	12.9	12.9	69	4.7	2	5	248	0.00	30.003 
19:10	12.8	12.8	12.8	70	4.9	1	3	248	0.00	30.003 
19:15	12.8	12.8	12.8	70	4.9	1	5	248	0.00	30.004 
19:20	12.6	12.6	12.6	71	5.0	1	3	248	0.00	30.004 
19:25	12.6	12.6	12.6	71	5.0	0	3	248	0.00	30.004 
19:30	12.4	12.4	12.4	72	5.1	1	3	248	0.00	30.008 
19:35	12.4	12.4	12.4	72	5.1	1	4	248	0.00	30.008 
19:40	12.4	12.4	12.4	72	5.1	1	3	248	0.00	30.008 
19:45	12.4	12.4	12.4	72	5.1	1	6	248	0.00	30.014 
19:50	12.4	12.4	12.4	72	5.1	1	3	248	0.00	30.014 
19:55	12.4	12.4	12.4	72	5.1	2	7	248	0.00	30.014 
20:00	12.3	12.3	12.3	72	5.0	1	4	248	0.00	30.016 
20:05	12.3	12.3	12.3	72	5.0	2	7	248	0.00	30.016 
20:10	12.1	12.1	12.1	72	4.8	1	5	248	0.00	30.016 
20:15	11.9	11.9	11.9	72	4.6	2	6	248	0.00	30.014 
20:20	11.9	11.9	11.9	72	4.6	1	5	248	0.00	30.014 
20:25	11.7	11.7	11.7	72	4.4	1	4	248	0.00	30.014 
20:30	11.6	11.6	11.6	72	4.4	0	2	248	0.00	30.014 
20:35	11.4	11.4	11.4	72	4.2	1	3	248	0.00	30.014 
20:40	11.2	11.2	11.2	72	4.0	1	4	248	0.00	30.014 
20:45	11.2	11.2	11.2	72	4.0	1	3	248	0.00	30.017 
20:50	11.1	11.1	11.1	73	4.2	2	4	248	0.00	30.017 
20:55	11.1	11.1	11.1	72	3.9	2	4	248	0.00	30.017 
21:00	10.7	10.7	10.7	72	3.5	1	5	248	0.00	30.016 
21:05	10.5	10.5	10.5	72	3.3	0	3	248	0.00	30.016 
21:10	10.4	10.4	10.4	73	3.5	1	4	248	0.00	30.016 
21:15	10.2	10.2	10.2	73	3.3	0	2	248	0.00	30.017 
21:20	10.2	10.2	10.2	73	3.3	1	4	248	0.00	30.017 
21:25	10.2	10.2	10.2	74	3.6	1	3	248	0.00	30.017 
21:30	10.2	10.2	10.2	74	3.6	1	5	248	0.00	30.018 
21:35	10.2	10.2	10.2	75	3.9	1	3	248	0.00	30.018 
21:40	10.4	10.4	10.4	76	4.4	0	2	248	0.00	30.018 
21:45	10.4	10.4	10.4	76	4.4	1	5	248	0.00	30.017 
21:50	10.4	10.4	10.4	76	4.4	0	2	248	0.00	30.017 
21:55	10.4	10.4	10.4	77	4.6	1	3	248	0.00	30.017 
22:00	10.5	10.5	10.5	77	4.7	1	3	248	0.00	30.020 
22:05	10.5	10.5	10.5	77	4.7	0	2	248	0.00	30.020 
22:10	10.5	10.5	10.5	77	4.7	1	4	248	0.00	30.020 
22:15	10.5	10.5	10.5	77	4.7	1	4	248	0.00	30.021 
22:20	10.5	10.5	10.5	77	4.7	1	3	248	0.00	30.021 
22:25	10.5	10.5	10.5	77	4.7	1	4	248	0.00	30.021 
22:30	10.5	10.5	10.5	77	4.7	1	4	248	0.00	30.021 
22:35	10.5	10.5	10.5	77	4.7	1	4	248	0.00	30.021 
22:40	10.5	10.5	10.5	77	4.7	1	3	248	0.00	30.021 
22:45	10.7	10.7	10.7	77	4.9	1	4	248	0.00	30.020 
22:50	10.7	10.7	10.7	77	4.9	1	3	248	0.00	30.020 
22:55	10.7	10.7	10.7	77	4.9	0	5	248	0.00	30.020 
23:00	10.7	10.7	10.7	78	5.2	0	3	248	0.00	30.019 
23:05	10.7	10.7	10.7	78	5.2	1	3	248	0.00	30.019 
23:10	10.9	10.9	10.9	78	5.4	1	4	248	0.00	30.019 
23:15	10.9	10.9	10.9	78	5.4	0	2	248	0.00	30.016 
23:20	11.1	11.1	11.1	78	5.6	0	2	248	0.00	30.016 
23:25	11.1	11.1	11.1	78	5.6	0	2	248	0.00	30.016 
23:30	11.1	11.1	11.1	78	5.6	0	2	248	0.00	30.012 
23:35	11.1	11.1	11.1	78	5.6	0	3	248	0.00	30.012 
23:40	11.1	11.1	11.1	78	5.6	1	5	248	0.00	30.012 
23:45	11.1	11.1	11.1	78	5.6	0	2	248	0.00	30.007 
23:50	11.1	11.1	11.1	78	5.6	1	2	248	0.00	30.007 
23:55	11.1	11.1	11.1	78	5.6	0	2	248	0.00	30.007 

CoCoRaHS
IN-AL-39
A2 Web Hosting
Creative Commons License
GoDaddy
search engine by freefind advanced

loaded 2018-11-13 23:40:44 • last modified 2010-11-18 10:43:29
Privacy PolicyDisclaimer
• wx.awcolley.com is powered by PmWiki v.2002016 •
• all content (unless otherwise noted) © 2018 A W Colley